Time;durP1;ratioP1;P1;durP2;ratioP2;P2;SDS_P1;SDS_P2;PMS_P1;PMS_P2;Temp;Humidity;BMP_temperature;BMP_pressure;BME280_temperature;BME280_humidity;BME280_pressure;Samples;Min_cycle;Max_cycle;Signal;HPM_P1;HPM_P2
2022/09/09 00:00:44;;;;;;;1.95;0.70;;;;;;;13.71;100.00;98357.13;5008533;28;20023;-61
2022/09/09 00:03:25;;;;;;;5.32;1.00;;;;;;;13.77;100.00;98367.06;4993334;28;20489;-61
2022/09/09 00:06:44;;;;;;;2.88;0.88;;;;;;;13.86;100.00;98364.84;4982241;28;20045;-61
2022/09/09 00:09:18;;;;;;;5.83;0.80;;;;;;;13.85;100.00;98356.91;5007231;28;20026;-62
2022/09/09 00:12:25;;;;;;;4.05;0.70;;;;;;;13.82;100.00;98352.75;4990820;28;20307;-62
2022/09/09 00:14:55;;;;;;;4.18;0.77;;;;;;;13.81;100.00;98353.84;4980611;28;20038;-62
2022/09/09 00:17:47;;;;;;;2.33;0.80;;;;;;;13.89;100.00;98349.94;4991530;28;20141;-62
2022/09/09 00:20:33;;;;;;;3.22;0.85;;;;;;;14.00;100.00;98358.09;4991343;28;20053;-62
2022/09/09 00:23:24;;;;;;;4.85;0.70;;;;;;;14.16;100.00;98358.44;4987166;28;20430;-62
2022/09/09 00:25:58;;;;;;;2.72;0.68;;;;;;;14.30;100.00;98364.47;5009135;28;20398;-62
2022/09/09 00:28:26;;;;;;;2.30;0.90;;;;;;;14.36;100.00;98358.09;5014583;28;20025;-62
2022/09/09 00:30:52;;;;;;;4.43;1.08;;;;;;;14.50;100.00;98356.75;4994921;28;20152;-61
2022/09/09 00:33:24;;;;;;;3.03;0.63;;;;;;;14.52;100.00;98346.47;5009618;28;20025;-62
2022/09/09 00:36:00;;;;;;;3.08;0.75;;;;;;;14.64;100.00;98341.00;4988340;28;20380;-61
2022/09/09 00:38:36;;;;;;;4.85;0.70;;;;;;;14.56;100.00;98341.38;5001385;28;20254;-62
2022/09/09 00:41:14;;;;;;;2.47;0.75;;;;;;;14.53;100.00;98339.97;4981926;28;20041;-62
2022/09/09 00:43:41;;;;;;;2.30;0.82;;;;;;;14.47;100.00;98351.78;4988483;28;20045;-62
2022/09/09 00:46:43;;;;;;;4.88;0.85;;;;;;;14.42;100.00;98346.22;4986983;28;20034;-62
2022/09/09 00:49:19;;;;;;;4.07;0.93;;;;;;;14.30;100.00;98346.25;5004844;28;20049;-61
2022/09/09 00:52:12;;;;;;;2.38;0.63;;;;;;;14.25;100.00;98351.56;4990580;28;20026;-62
2022/09/09 00:55:15;;;;;;;2.97;0.70;;;;;;;14.19;100.00;98350.63;4991964;28;20031;-62
2022/09/09 00:57:41;;;;;;;2.58;0.63;;;;;;;14.22;100.00;98355.59;4994197;28;20116;-59
2022/09/09 01:00:18;;;;;;;2.75;0.85;;;;;;;14.21;100.00;98351.22;4998317;28;21076;-59
2022/09/09 01:03:12;;;;;;;2.17;0.80;;;;;;;14.21;100.00;98359.38;4992764;28;20092;-59
2022/09/09 01:06:11;;;;;;;2.20;0.75;;;;;;;14.22;100.00;98357.50;4986941;28;20470;-59
2022/09/09 01:08:56;;;;;;;2.13;0.65;;;;;;;14.25;100.00;98368.75;5006100;28;20572;-59
2022/09/09 01:12:02;;;;;;;2.92;0.80;;;;;;;14.33;100.00;98351.22;4982971;28;20045;-59
2022/09/09 01:14:41;;;;;;;3.03;0.77;;;;;;;14.40;100.00;98360.06;4991987;28;20026;-59
2022/09/09 01:17:34;;;;;;;5.70;0.85;;;;;;;14.45;100.00;98356.63;4989514;28;20030;-59
2022/09/09 01:20:06;;;;;;;6.07;0.90;;;;;;;14.54;100.00;98371.59;4991839;28;20117;-60
2022/09/09 01:22:57;;;;;;;1.70;0.60;;;;;;;14.57;100.00;98364.81;5004330;28;20025;-59
2022/09/09 01:25:29;;;;;;;4.28;1.63;;;;;;;14.56;100.00;98355.81;4997352;28;20022;-59
2022/09/09 01:28:02;;;;;;;2.38;0.65;;;;;;;14.62;100.00;98354.03;4992049;28;20124;-59
2022/09/09 01:30:28;;;;;;;4.50;0.82;;;;;;;14.67;100.00;98354.13;4991008;28;20033;-59
2022/09/09 01:32:58;;;;;;;3.50;0.60;;;;;;;14.67;100.00;98360.41;4997635;28;20522;-59
2022/09/09 01:36:06;;;;;;;2.63;0.98;;;;;;;14.76;100.00;98365.50;5002165;28;20033;-59
2022/09/09 01:38:34;;;;;;;4.20;0.85;;;;;;;14.91;100.00;98365.81;4952698;28;20723;-59
2022/09/09 01:40:59;;;;;;;2.03;0.70;;;;;;;15.04;100.00;98362.78;4983561;28;20037;-59
2022/09/09 01:43:26;;;;;;;3.42;0.63;;;;;;;15.18;100.00;98371.50;5006542;28;20022;-59
2022/09/09 01:46:00;;;;;;;4.07;0.82;;;;;;;15.25;100.00;98374.06;4990039;28;20033;-59
2022/09/09 01:48:26;;;;;;;3.03;0.80;;;;;;;15.32;100.00;98366.56;5006431;28;20033;-60
2022/09/09 01:50:51;;;;;;;3.35;0.50;;;;;;;15.31;100.00;98373.91;4992721;28;20121;-60
2022/09/09 01:53:19;;;;;;;1.35;0.60;;;;;;;15.22;100.00;98377.25;5008180;28;20160;-60
2022/09/09 01:56:09;;;;;;;1.52;0.90;;;;;;;15.20;100.00;98376.69;5011158;28;20025;-60
2022/09/09 01:58:59;;;;;;;1.33;0.60;;;;;;;15.28;100.00;98377.13;4992860;28;20108;-61
2022/09/09 02:01:36;;;;;;;2.00;0.60;;;;;;;15.19;100.00;98372.31;4986233;28;20030;-60
2022/09/09 02:04:09;;;;;;;2.30;0.60;;;;;;;15.16;100.00;98370.91;4992174;28;20026;-59
2022/09/09 02:06:38;;;;;;;3.13;0.50;;;;;;;15.12;100.00;98359.66;4999926;28;20109;-59
2022/09/09 02:09:06;;;;;;;2.58;0.60;;;;;;;14.97;100.00;98364.81;4987128;28;20489;-59
2022/09/09 02:11:32;;;;;;;4.45;1.02;;;;;;;14.99;100.00;98373.59;5002492;28;20030;-60
2022/09/09 02:14:07;;;;;;;5.40;0.70;;;;;;;15.02;100.00;98366.81;4979943;28;20033;-59
2022/09/09 02:16:36;;;;;;;3.03;0.85;;;;;;;15.22;100.00;98371.81;5004256;28;20123;-62
2022/09/09 02:19:25;;;;;;;4.30;0.60;;;;;;;15.17;100.00;98353.50;4987394;28;20057;-59
2022/09/09 02:21:54;;;;;;;1.73;0.90;;;;;;;15.22;100.00;98360.91;4998688;28;20030;-59
2022/09/09 02:24:20;;;;;;;3.17;0.55;;;;;;;15.15;100.00;98343.91;5005693;28;20029;-60
2022/09/09 02:26:49;;;;;;;3.70;0.60;;;;;;;15.01;100.00;98338.75;4983244;28;20029;-59
2022/09/09 02:29:19;;;;;;;10.75;0.82;;;;;;;14.86;100.00;98347.44;5006506;28;20026;-59
2022/09/09 02:31:49;;;;;;;1.48;0.88;;;;;;;14.85;100.00;98353.13;5005710;28;20038;-60
2022/09/09 02:34:20;;;;;;;5.68;1.05;;;;;;;14.65;100.00;98361.72;5002914;28;20063;-59
2022/09/09 02:36:47;;;;;;;3.40;0.70;;;;;;;14.48;100.00;98376.03;4988096;28;20030;-59
2022/09/09 02:39:13;;;;;;;0.95;0.70;;;;;;;14.38;100.00;98364.94;4986277;28;20041;-63
2022/09/09 02:41:41;;;;;;;3.83;0.98;;;;;;;14.42;100.00;98355.22;4992820;28;20377;-60
2022/09/09 02:44:19;;;;;;;3.95;1.10;;;;;;;14.13;100.00;98354.31;4989935;28;20041;-60
2022/09/09 02:46:44;;;;;;;4.28;0.82;;;;;;;13.97;100.00;98374.88;4989319;28;20024;-59
2022/09/09 02:49:18;;;;;;;6.78;0.90;;;;;;;13.78;100.00;98360.56;5003952;28;20034;-60
2022/09/09 02:52:06;;;;;;;4.55;1.25;;;;;;;13.63;100.00;98354.75;4989704;28;20567;-60
2022/09/09 02:54:35;;;;;;;4.80;0.90;;;;;;;13.76;100.00;98349.09;4984006;28;20031;-60
2022/09/09 02:57:07;;;;;;;;;;;;;;;13.81;100.00;98351.13;4995544;28;20104;-60
2022/09/09 02:59:33;;;;;;;7.30;1.30;;;;;;;13.75;100.00;98350.19;4987825;28;20349;-60
2022/09/09 03:01:59;;;;;;;3.17;0.80;;;;;;;13.72;100.00;98347.09;4998198;28;20022;-60
2022/09/09 03:04:24;;;;;;;4.03;1.00;;;;;;;13.78;100.00;98351.56;4986930;28;20161;-60
2022/09/09 03:06:50;;;;;;;4.90;0.90;;;;;;;13.70;100.00;98350.06;4990645;28;20536;-60
2022/09/09 03:09:15;;;;;;;6.70;0.90;;;;;;;13.55;100.00;98341.50;4990444;28;20025;-60
2022/09/09 03:11:41;;;;;;;2.08;0.93;;;;;;;13.50;100.00;98344.09;4988864;28;20026;-60
2022/09/09 03:14:06;;;;;;;3.30;1.10;;;;;;;13.58;100.00;98333.72;4980731;28;20030;-59
2022/09/09 03:16:34;;;;;;;2.90;1.00;;;;;;;13.73;100.00;98335.16;4983051;28;20030;-60
2022/09/09 03:19:00;;;;;;;2.60;1.08;;;;;;;13.83;100.00;98332.66;4987654;28;20485;-60
2022/09/09 03:21:25;;;;;;;1.98;0.90;;;;;;;13.81;100.00;98330.19;4990691;28;20065;-60
2022/09/09 03:23:51;;;;;;;3.92;0.90;;;;;;;13.88;100.00;98334.69;4986468;28;20076;-60
2022/09/09 03:26:16;;;;;;;3.58;1.00;;;;;;;13.87;100.00;98342.00;4988038;28;20072;-60
2022/09/09 03:28:42;;;;;;;1.90;0.80;;;;;;;13.88;100.00;98342.84;4988648;28;20042;-60
2022/09/09 03:31:10;;;;;;;1.17;0.50;;;;;;;13.73;100.00;98335.97;5003580;28;20030;-60
2022/09/09 03:33:36;;;;;;;1.60;0.60;;;;;;;13.78;100.00;98336.09;5004176;28;20033;-59
2022/09/09 03:36:02;;;;;;;3.15;0.95;;;;;;;13.78;100.00;98335.25;4999205;28;20041;-60
2022/09/09 03:38:28;;;;;;;6.47;0.90;;;;;;;13.61;100.00;98339.75;5004309;28;20022;-60
2022/09/09 03:40:56;;;;;;;4.32;0.90;;;;;;;13.50;100.00;98333.22;4989202;28;20385;-60
2022/09/09 03:43:29;;;;;;;5.35;0.90;;;;;;;13.33;100.00;98343.94;5004900;28;20033;-60
2022/09/09 03:45:58;;;;;;;3.92;1.05;;;;;;;13.13;100.00;98342.31;5010205;28;20029;-59
2022/09/09 03:48:25;;;;;;;6.25;1.10;;;;;;;13.15;100.00;98355.66;4997212;28;20101;-59
2022/09/09 03:50:53;;;;;;;2.90;0.90;;;;;;;13.12;100.00;98353.41;5006155;28;20029;-60
2022/09/09 03:53:21;;;;;;;2.45;0.63;;;;;;;13.25;100.00;98355.09;5003686;28;20116;-60
2022/09/09 03:55:47;;;;;;;5.18;1.10;;;;;;;13.21;100.00;98353.94;5005088;28;20029;-60
2022/09/09 03:58:14;;;;;;;5.85;1.08;;;;;;;13.31;100.00;98346.06;5003169;28;20022;-60
2022/09/09 04:00:42;;;;;;;2.33;0.90;;;;;;;13.27;100.00;98353.03;4991054;28;20026;-60
2022/09/09 04:03:11;;;;;;;5.95;1.23;;;;;;;13.33;100.00;98365.66;5001649;28;20019;-60
2022/09/09 04:05:42;;;;;;;;;;;;;;;13.40;100.00;98350.09;4986558;28;20026;-60
2022/09/09 04:08:08;;;;;;;1.35;0.73;;;;;;;13.60;100.00;98347.09;4988924;28;20016;-60
2022/09/09 04:10:36;;;;;;;5.60;0.77;;;;;;;13.59;100.00;98342.69;4987030;28;20241;-60
2022/09/09 04:13:02;;;;;;;2.03;0.75;;;;;;;13.61;100.00;98354.16;4987377;28;20139;-60
2022/09/09 04:15:27;;;;;;;3.83;0.90;;;;;;;13.61;100.00;98346.00;5003801;28;20112;-61
2022/09/09 04:17:53;;;;;;;2.20;0.85;;;;;;;13.56;100.00;98348.59;4992595;28;20030;-60
2022/09/09 04:20:19;;;;;;;3.25;1.00;;;;;;;13.51;100.00;98348.47;4989735;28;20032;-60
2022/09/09 04:22:44;;;;;;;6.75;1.20;;;;;;;13.50;100.00;98353.06;4985242;28;20033;-60
2022/09/09 04:25:10;;;;;;;5.07;0.88;;;;;;;13.50;100.00;98354.97;5006183;28;20025;-60
2022/09/09 04:27:35;;;;;;;3.33;0.85;;;;;;;13.48;100.00;98357.09;4992508;28;20117;-60
2022/09/09 04:30:01;;;;;;;6.55;1.20;;;;;;;13.51;100.00;98356.63;5009504;28;20034;-60
2022/09/09 04:32:26;;;;;;;1.85;0.85;;;;;;;13.52;100.00;98358.28;4990354;28;20026;-60
2022/09/09 04:34:52;;;;;;;2.47;0.80;;;;;;;13.45;100.00;98354.84;5005644;28;20096;-60
2022/09/09 04:37:18;;;;;;;2.85;0.95;;;;;;;13.42;100.00;98358.84;5009319;28;20029;-60
2022/09/09 04:39:43;;;;;;;4.93;0.90;;;;;;;13.44;100.00;98350.44;4994416;28;20038;-60
2022/09/09 04:42:08;;;;;;;3.70;1.00;;;;;;;13.41;100.00;98367.22;5007314;28;20028;-60
2022/09/09 04:44:34;;;;;;;3.28;0.98;;;;;;;13.41;100.00;98361.78;4989794;28;20027;-60
2022/09/09 04:46:59;;;;;;;2.70;1.00;;;;;;;13.46;100.00;98364.63;4991164;28;20037;-60
2022/09/09 04:49:25;;;;;;;2.58;0.90;;;;;;;13.50;100.00;98368.56;5010383;28;20028;-60
2022/09/09 04:51:51;;;;;;;2.15;0.75;;;;;;;13.55;100.00;98372.22;5009415;28;20470;-60
2022/09/09 04:54:17;;;;;;;1.98;1.05;;;;;;;13.62;100.00;98385.69;4994888;28;20037;-61
2022/09/09 04:56:43;;;;;;;4.00;0.90;;;;;;;13.66;100.00;98386.91;5015285;28;20026;-60
2022/09/09 04:59:09;;;;;;;6.93;0.95;;;;;;;13.77;100.00;98388.00;4992539;28;20025;-60
2022/09/09 05:01:35;;;;;;;4.75;0.98;;;;;;;13.84;100.00;98385.19;4982334;28;20551;-60
2022/09/09 05:04:02;;;;;;;3.22;0.95;;;;;;;13.85;100.00;98381.38;5001989;28;20366;-59
2022/09/09 05:06:29;;;;;;;7.75;0.85;;;;;;;13.82;100.00;98390.84;5006367;28;20030;-59
2022/09/09 05:08:55;;;;;;;5.05;1.00;;;;;;;13.78;100.00;98379.59;5009463;28;20052;-59
2022/09/09 05:11:25;;;;;;;4.85;1.10;;;;;;;13.77;100.00;98390.72;4988994;28;20030;-60
2022/09/09 05:13:53;;;;;;;2.88;0.98;;;;;;;13.77;100.00;98388.00;4991094;28;20073;-60
2022/09/09 05:16:20;;;;;;;4.30;1.42;;;;;;;13.75;100.00;98395.53;5009686;28;20025;-60
2022/09/09 05:18:45;;;;;;;3.03;1.05;;;;;;;13.81;100.00;98398.16;4994588;28;20021;-60
2022/09/09 05:21:12;;;;;;;3.38;0.98;;;;;;;13.93;100.00;98400.88;5008148;28;20092;-60
2022/09/09 05:23:38;;;;;;;5.95;1.27;;;;;;;14.01;100.00;98399.72;5008719;28;20141;-61
2022/09/09 05:26:07;;;;;;;6.80;1.40;;;;;;;14.07;100.00;98398.78;4987997;28;20132;-62
2022/09/09 05:28:35;;;;;;;2.97;0.90;;;;;;;14.15;100.00;98403.88;4991142;28;20030;-62
2022/09/09 05:31:04;;;;;;;4.05;0.90;;;;;;;14.22;100.00;98404.56;4998623;28;20029;-62
2022/09/09 05:33:30;;;;;;;1.00;0.85;;;;;;;14.29;100.00;98403.63;4989178;28;20038;-61
2022/09/09 05:36:05;;;;;;;4.10;1.15;;;;;;;14.56;100.00;98404.81;4987791;28;20033;-61
2022/09/09 05:38:32;;;;;;;7.35;1.05;;;;;;;15.01;100.00;98408.72;4992527;28;20339;-61
2022/09/09 05:40:59;;;;;;;2.50;0.98;;;;;;;16.85;100.00;98400.91;4986821;28;20026;-60
2022/09/09 05:43:26;;;;;;;2.20;0.93;;;;;;;18.83;79.79;98397.47;4991336;28;20141;-60
2022/09/09 05:46:22;;;;;;;5.40;1.30;;;;;;;20.61;69.21;98409.00;4992830;28;20092;-63
2022/09/09 05:48:50;;;;;;;4.03;1.20;;;;;;;20.29;67.43;98407.38;4972438;28;20495;-61
2022/09/09 05:51:22;;;;;;;1.25;0.55;;;;;;;20.61;67.85;98401.56;4989843;28;20033;-63
2022/09/09 05:53:48;;;;;;;2.58;0.80;;;;;;;22.07;62.97;98403.00;4986040;28;20041;-63
2022/09/09 05:56:19;;;;;;;3.28;0.77;;;;;;;22.50;57.67;98405.13;4985349;28;20031;-61
2022/09/09 05:58:46;;;;;;;3.65;0.70;;;;;;;20.73;61.98;98406.78;4998993;28;20033;-64
2022/09/09 06:01:15;;;;;;;2.10;0.60;;;;;;;19.09;69.46;98417.59;4986219;28;21750;-61
2022/09/09 06:03:42;;;;;;;4.70;0.80;;;;;;;17.96;77.36;98416.88;4986232;28;20109;-60
2022/09/09 06:06:10;;;;;;;2.75;0.60;;;;;;;17.73;81.35;98412.53;5000679;28;20033;-66
2022/09/09 06:08:38;;;;;;;3.25;0.90;;;;;;;17.88;82.37;98414.59;4987239;28;20405;-60
2022/09/09 06:11:05;;;;;;;3.90;0.90;;;;;;;20.96;66.39;98399.81;5008219;28;20050;-59
2022/09/09 06:13:31;;;;;;;3.83;1.00;;;;;;;21.55;62.21;98400.91;4987988;28;20629;-59
2022/09/09 06:15:58;;;;;;;8.95;1.80;;;;;;;21.88;60.35;98402.88;4986686;28;20034;-60
2022/09/09 06:18:24;;;;;;;5.55;0.90;;;;;;;24.47;53.68;98406.56;4992282;28;20057;-59
2022/09/09 06:20:57;;;;;;;2.38;0.77;;;;;;;23.63;54.45;98405.41;5009108;28;20052;-60
2022/09/09 06:23:23;;;;;;;4.40;1.30;;;;;;;21.53;59.52;98405.88;4991593;28;20071;-60
2022/09/09 06:25:50;;;;;;;3.78;0.80;;;;;;;20.32;64.83;98410.38;4989581;28;20029;-60
2022/09/09 06:28:15;;;;;;;3.65;0.70;;;;;;;19.87;67.33;98406.56;4993202;28;20634;-63
2022/09/09 06:30:41;;;;;;;5.38;0.80;;;;;;;19.11;67.94;98404.44;4992796;28;20018;-60
2022/09/09 06:33:06;;;;;;;2.58;0.77;;;;;;;18.76;71.47;98408.69;4995843;28;20559;-60
2022/09/09 06:35:32;;;;;;;5.07;1.25;;;;;;;18.22;73.89;98408.84;4994930;28;20084;-60
2022/09/09 06:37:58;;;;;;;1.83;0.93;;;;;;;18.91;70.86;98405.16;4993903;28;20144;-59
2022/09/09 06:40:24;;;;;;;8.68;1.00;;;;;;;19.80;65.78;98403.25;4998898;28;20041;-60
2022/09/09 06:42:49;;;;;;;2.85;0.70;;;;;;;21.65;59.62;98403.59;4986816;28;20458;-60
2022/09/09 06:45:15;;;;;;;4.15;1.02;;;;;;;22.97;55.01;98393.31;4989506;28;20120;-59
2022/09/09 06:47:42;;;;;;;4.90;1.10;;;;;;;22.93;55.24;98403.28;5001308;28;20515;-60
2022/09/09 06:50:07;;;;;;;3.70;0.90;;;;;;;22.07;56.61;98402.19;4992067;28;20018;-59
2022/09/09 06:52:36;;;;;;;3.28;1.08;;;;;;;21.29;59.43;98414.78;4985388;28;20034;-60
2022/09/09 06:55:02;;;;;;;1.27;0.70;;;;;;;21.08;60.37;98410.47;4999147;28;20030;-60
2022/09/09 06:57:28;;;;;;;2.72;0.70;;;;;;;20.32;62.08;98412.31;4990983;28;20052;-59
2022/09/09 06:59:53;;;;;;;4.60;0.73;;;;;;;21.53;59.28;98423.22;4990599;28;20044;-56
2022/09/09 07:02:18;;;;;;;2.65;1.10;;;;;;;21.99;57.46;98420.16;5006557;28;20026;-58
2022/09/09 07:04:44;;;;;;;1.90;0.60;;;;;;;21.14;59.36;98429.44;4995065;28;20033;-63
2022/09/09 07:07:12;;;;;;;4.18;0.73;;;;;;;20.51;62.30;98426.28;4999419;28;20545;-60
2022/09/09 07:09:37;;;;;;;6.50;1.35;;;;;;;21.17;60.89;98428.88;4988034;28;20168;-64
2022/09/09 07:12:05;;;;;;;6.13;0.90;;;;;;;21.69;59.30;98418.44;4983033;28;20025;-63
2022/09/09 07:14:31;;;;;;;2.28;1.13;;;;;;;21.75;58.42;98416.50;4991146;28;20409;-63
2022/09/09 07:16:57;;;;;;;2.83;0.70;;;;;;;21.36;59.15;98423.56;4989175;28;20045;-61
2022/09/09 07:19:22;;;;;;;2.00;0.80;;;;;;;21.29;61.71;98413.97;4989269;28;20021;-62
2022/09/09 07:21:47;;;;;;;1.90;0.73;;;;;;;21.29;59.46;98420.28;4985075;28;20083;-63
2022/09/09 07:24:13;;;;;;;7.38;1.40;;;;;;;21.07;59.76;98419.84;5003658;28;20108;-63
2022/09/09 07:26:39;;;;;;;2.95;0.70;;;;;;;22.19;57.34;98415.59;4989416;28;20121;-63
2022/09/09 07:29:06;;;;;;;3.85;1.13;;;;;;;24.02;52.96;98417.25;4990082;28;20076;-64
2022/09/09 07:31:37;;;;;;;3.60;0.80;;;;;;;24.57;50.67;98419.41;5003939;28;20034;-63
2022/09/09 07:34:04;;;;;;;8.50;0.77;;;;;;;25.85;47.91;98412.06;4987071;28;20034;-64
2022/09/09 07:36:35;;;;;;;1.52;0.57;;;;;;;25.08;48.77;98429.50;5005489;28;20037;-62
2022/09/09 07:39:03;;;;;;;5.07;0.90;;;;;;;23.78;51.26;98433.94;4989364;28;20145;-63
2022/09/09 07:41:34;;;;;;;2.20;0.80;;;;;;;23.71;53.18;98437.06;4993818;28;20111;-63
2022/09/09 07:44:00;;;;;;;5.72;1.00;;;;;;;25.67;48.91;98432.41;4988072;28;20034;-62
2022/09/09 07:46:26;;;;;;;4.25;0.75;;;;;;;28.76;42.34;98429.72;4999786;28;20749;-63
2022/09/09 07:48:54;;;;;;;1.27;0.55;;;;;;;30.44;38.42;98421.63;4990541;28;20033;-63
2022/09/09 07:51:26;;;;;;;6.57;0.80;;;;;;;32.07;36.02;98417.00;4989723;28;20033;-64
2022/09/09 07:53:54;;;;;;;5.00;1.00;;;;;;;32.23;34.68;98410.66;4985562;28;20149;-63
2022/09/09 07:56:23;;;;;;;4.37;0.77;;;;;;;32.21;34.27;98410.19;4990460;28;20148;-62
2022/09/09 07:58:49;;;;;;;6.95;0.90;;;;;;;32.28;34.22;98411.22;4990403;28;20038;-61
2022/09/09 08:01:18;;;;;;;3.08;0.68;;;;;;;31.01;35.31;98415.25;5004103;28;20030;-62
2022/09/09 08:03:44;;;;;;;;;;;;;;;29.70;37.66;98418.47;5002521;28;20026;-61
2022/09/09 08:06:11;;;;;;;5.93;0.57;;;;;;;31.56;35.32;98421.41;4982553;28;19913;-62
2022/09/09 08:08:37;;;;;;;5.95;0.80;;;;;;;32.22;33.72;98414.59;4984884;28;20044;-62
2022/09/09 08:11:14;;;;;;;2.78;0.43;;;;;;;34.67;30.65;98420.88;5004547;28;20022;-62
2022/09/09 08:13:41;;;;;;;4.05;0.73;;;;;;;34.47;30.90;98419.25;5001707;28;20375;-61
2022/09/09 08:16:15;;;;;;;3.90;0.80;;;;;;;33.44;32.25;98429.03;4989958;28;20033;-61
2022/09/09 08:18:41;;;;;;;2.83;0.70;;;;;;;34.60;30.83;98429.16;4998889;28;20497;-61
2022/09/09 08:21:11;;;;;;;2.38;0.45;;;;;;;33.85;31.28;98426.75;4993698;28;20036;-63
2022/09/09 08:23:39;;;;;;;3.65;0.65;;;;;;;32.60;32.39;98424.50;4985720;28;20414;-61
2022/09/09 08:26:08;;;;;;;3.77;0.70;;;;;;;32.38;33.39;98418.25;5006325;28;20498;-62
2022/09/09 08:28:34;;;;;;;3.83;0.85;;;;;;;32.00;32.93;98413.19;4986116;28;20069;-61
2022/09/09 08:31:10;;;;;;;7.55;0.70;;;;;;;31.62;34.67;98414.41;4988227;28;20054;-61
2022/09/09 08:33:38;;;;;;;2.80;0.45;;;;;;;32.55;32.72;98407.94;4990386;28;20072;-61
2022/09/09 08:36:29;;;;;;;1.58;0.60;;;;;;;32.53;32.75;98409.09;5008585;28;20034;-61
2022/09/09 08:38:56;;;;;;;2.42;0.50;;;;;;;32.19;33.00;98402.13;4983331;28;20037;-61
2022/09/09 08:42:02;;;;;;;4.35;0.60;;;;;;;32.75;32.97;98420.91;4999453;28;20021;-60
2022/09/09 08:44:34;;;;;;;4.53;0.90;;;;;;;31.03;34.45;98432.47;4999561;28;20033;-60
2022/09/09 08:47:15;;;;;;;3.60;0.65;;;;;;;30.66;35.71;98426.81;4989085;28;20089;-61
2022/09/09 08:50:02;;;;;;;2.88;0.63;;;;;;;30.51;35.44;98419.91;4988578;28;20068;-61
2022/09/09 08:52:55;;;;;;;5.35;0.80;;;;;;;29.30;38.31;98430.03;4981532;28;20030;-60
2022/09/09 08:55:45;;;;;;;5.82;0.63;;;;;;;28.04;40.46;98423.78;4988289;28;20069;-61
2022/09/09 08:58:16;;;;;;;4.30;0.77;;;;;;;29.19;37.35;98403.72;4990985;28;20056;-61
2022/09/09 09:00:51;;;;;;;6.22;0.70;;;;;;;30.28;36.73;98408.31;4987036;28;20084;-60
2022/09/09 09:04:02;;;;;;;1.95;0.47;;;;;;;32.12;33.88;98403.91;5004397;28;20052;-61
2022/09/09 09:06:30;;;;;;;3.75;0.60;;;;;;;32.03;33.58;98412.47;4986931;28;20036;-62
2022/09/09 09:09:15;;;;;;;3.70;0.88;;;;;;;32.61;32.75;98415.72;4989597;28;20515;-62
2022/09/09 09:11:47;;;;;;;5.80;0.93;;;;;;;32.34;32.64;98408.97;4995595;28;20030;-62
2022/09/09 09:14:23;;;;;;;2.75;0.70;;;;;;;28.63;37.98;98415.69;4986054;28;20124;-59
2022/09/09 09:17:00;;;;;;;6.22;0.80;;;;;;;26.49;42.64;98419.34;4985781;28;20048;-60
2022/09/09 09:19:28;;;;;;;3.42;0.57;;;;;;;24.31;47.00;98422.59;4987362;28;20083;-61
2022/09/09 09:22:06;;;;;;;4.10;0.55;;;;;;;26.95;41.78;98413.41;5009031;28;20022;-63
2022/09/09 09:24:44;;;;;;;2.35;0.50;;;;;;;29.48;37.03;98397.28;4995262;28;20025;-62
2022/09/09 09:27:19;;;;;;;1.95;0.50;;;;;;;32.73;33.12;98400.84;5010467;28;20030;-62
2022/09/09 09:29:49;;;;;;;2.25;0.57;;;;;;;33.10;31.18;98406.19;4991556;28;20040;-63
2022/09/09 09:32:18;;;;;;;3.28;0.55;;;;;;;30.44;34.65;98391.72;5009262;28;20033;-62
2022/09/09 09:34:51;;;;;;;3.22;0.60;;;;;;;27.84;38.73;98391.91;4990620;28;20530;-63
2022/09/09 09:37:23;;;;;;;2.63;0.52;;;;;;;24.63;44.47;98399.66;4988186;28;20639;-62
2022/09/09 09:39:49;;;;;;;5.63;0.88;;;;;;;23.48;47.61;98396.53;4990974;28;20026;-62
2022/09/09 09:42:17;;;;;;;2.22;0.52;;;;;;;24.34;46.67;98387.97;5009842;28;20028;-61
2022/09/09 09:44:43;;;;;;;4.67;0.50;;;;;;;27.78;39.86;98381.25;4987259;28;20041;-61
2022/09/09 09:47:21;;;;;;;4.95;0.80;;;;;;;29.90;36.98;98375.03;4988024;28;20034;-61
2022/09/09 09:49:55;;;;;;;3.28;0.55;;;;;;;31.09;34.30;98364.00;5008717;28;20125;-60
2022/09/09 09:52:26;;;;;;;4.78;0.40;;;;;;;31.17;32.65;98374.25;5006335;28;20025;-60
2022/09/09 09:54:53;;;;;;;2.80;0.60;;;;;;;30.11;32.91;98375.00;4991688;28;20045;-61
2022/09/09 09:57:27;;;;;;;1.67;0.40;;;;;;;30.30;32.47;98372.50;4990835;28;20021;-60
2022/09/09 10:00:17;;;;;;;2.17;0.50;;;;;;;32.05;29.91;98366.16;5012222;22;20049;-63
2022/09/09 10:02:44;;;;;;;3.33;0.40;;;;;;;31.57;30.17;98370.75;5033137;28;20115;-62
2022/09/09 10:05:18;;;;;;;3.53;0.57;;;;;;;32.58;29.58;98368.81;5029322;28;20028;-62
2022/09/09 10:07:47;;;;;;;3.10;0.30;;;;;;;33.24;29.16;98360.84;5031859;28;20020;-62
2022/09/09 10:10:26;;;;;;;3.67;0.60;;;;;;;34.55;27.58;98358.38;5033381;28;20029;-62
2022/09/09 10:13:01;;;;;;;3.65;0.90;;;;;;;31.64;29.50;98361.75;5031235;28;20033;-62
2022/09/09 10:15:34;;;;;;;2.92;0.40;;;;;;;30.23;32.21;98363.88;5028155;28;20025;-62
2022/09/09 10:18:18;;;;;;;2.10;0.50;;;;;;;26.97;36.80;98363.13;5031493;28;20040;-61
2022/09/09 10:20:55;;;;;;;3.05;0.40;;;;;;;26.66;37.47;98380.63;5046481;28;20166;-62
2022/09/09 10:23:20;;;;;;;1.50;0.38;;;;;;;26.77;37.91;98390.31;5029768;28;20021;-61
2022/09/09 10:26:06;;;;;;;2.75;0.52;;;;;;;25.92;43.26;98378.38;5032235;28;20031;-61
2022/09/09 10:29:12;;;;;;;3.95;0.60;;;;;;;24.52;45.77;98391.84;5027122;28;20188;-61
2022/09/09 10:31:50;;;;;;;2.85;0.40;;;;;;;23.87;46.58;98395.41;4968482;28;20077;-61
2022/09/09 10:34:27;;;;;;;2.40;0.60;;;;;;;22.71;49.38;98375.38;5024045;28;20043;-64
2022/09/09 10:36:53;;;;;;;2.22;0.50;;;;;;;22.58;51.23;98389.88;5028370;28;20029;-65
2022/09/09 10:39:42;;;;;;;4.10;0.60;;;;;;;23.09;51.50;98390.13;5029849;28;20079;-65
2022/09/09 10:42:16;;;;;;;4.22;0.40;;;;;;;25.49;46.62;98387.94;5030251;28;20037;-64
2022/09/09 10:45:01;;;;;;;2.00;0.63;;;;;;;25.84;45.71;98388.25;5027253;28;20028;-64
2022/09/09 10:47:51;;;;;;;3.40;0.98;;;;;;;25.34;46.33;98391.06;5021170;28;20029;-65
2022/09/09 10:50:16;;;;;;;1.52;0.40;;;;;;;23.68;49.31;98396.22;5048264;28;20025;-64
2022/09/09 10:53:23;;;;;;;2.97;0.50;;;;;;;23.18;48.72;98395.81;5029596;28;20439;-64
2022/09/09 10:55:55;;;;;;;4.95;0.40;;;;;;;23.32;49.57;98405.03;5041100;28;20033;-64
2022/09/09 10:58:28;;;;;;;3.30;0.40;;;;;;;23.07;48.78;98402.59;5029780;28;20055;-64
2022/09/09 11:01:07;;;;;;;2.55;0.30;;;;;;;22.66;50.85;98403.03;5021872;28;20112;-64
2022/09/09 11:03:37;;;;;;;2.05;0.38;;;;;;;21.84;52.00;98401.81;5030486;28;20099;-65
2022/09/09 11:06:13;;;;;;;6.55;0.65;;;;;;;21.50;51.58;98368.72;5027161;28;20075;-61
2022/09/09 11:08:39;;;;;;;2.05;0.40;;;;;;;22.15;50.00;98392.47;5024901;28;20064;-61
2022/09/09 11:11:19;;;;;;;1.35;0.30;;;;;;;21.98;50.92;98399.25;5028782;28;20029;-62
2022/09/09 11:13:56;;;;;;;3.80;0.32;;;;;;;22.00;51.28;98399.75;5041670;28;20037;-62
2022/09/09 11:16:45;;;;;;;2.63;0.40;;;;;;;21.75;51.84;98400.78;5028977;28;20024;-59
2022/09/09 11:19:28;;;;;;;3.97;0.63;;;;;;;21.04;54.28;98410.22;5022187;28;20843;-62
2022/09/09 11:21:55;;;;;;;3.60;0.50;;;;;;;20.89;54.61;98413.84;5025105;28;20491;-61
2022/09/09 11:24:24;;;;;;;3.53;1.13;;;;;;;20.59;56.34;98409.25;5026875;28;20059;-62
2022/09/09 11:27:06;;;;;;;3.55;0.65;;;;;;;20.77;56.34;98413.34;5025630;28;20033;-61
2022/09/09 11:29:57;;;;;;;2.83;0.60;;;;;;;20.83;58.72;98411.38;5027840;28;20029;-62
2022/09/09 11:32:32;;;;;;;2.38;0.55;;;;;;;20.31;60.37;98411.47;5021756;28;20458;-61
2022/09/09 11:35:02;;;;;;;6.35;0.60;;;;;;;19.82;64.28;98420.28;5031315;28;20056;-62
2022/09/09 11:38:25;;;;;;;5.45;0.82;;;;;;;19.35;68.65;98431.41;5026894;28;20032;-62
2022/09/09 11:41:03;;;;;;;1.23;0.43;;;;;;;19.11;64.80;98426.38;5008462;28;20033;-64
2022/09/09 11:43:38;;;;;;;1.38;0.52;;;;;;;19.23;62.28;98428.88;5021202;28;20049;-64
2022/09/09 11:46:04;;;;;;;1.77;0.40;;;;;;;18.98;64.75;98446.88;5024766;28;20047;-66
2022/09/09 11:48:45;;;;;;;1.85;0.43;;;;;;;18.49;73.50;98444.38;5032816;28;20029;-66
2022/09/09 11:51:31;;;;;;;1.40;0.28;;;;;;;18.09;70.66;98442.97;5025954;28;20024;-67
2022/09/09 11:54:23;;;;;;;1.77;0.40;;;;;;;18.36;70.51;98440.16;5022434;28;20472;-65